createdAt,value
2022-11-10T00:04:55.162Z,7.17
2022-11-10T00:10:17.244Z,7.25
2022-11-10T00:15:39.006Z,7.23
2022-11-10T00:21:05.873Z,7.27
2022-11-10T00:26:27.682Z,7.35
2022-11-10T00:31:49.667Z,7.40
2022-11-10T00:37:11.754Z,7.39
2022-11-10T00:42:33.617Z,7.43
2022-11-10T00:47:55.447Z,7.46
2022-11-10T00:53:17.226Z,7.41
2022-11-10T00:58:39.013Z,7.48
2022-11-10T01:04:00.899Z,7.39
2022-11-10T01:09:22.730Z,7.46
2022-11-10T01:14:47.642Z,7.51
2022-11-10T01:20:10.361Z,7.49
2022-11-10T01:25:32.163Z,7.66
2022-11-10T01:31:01.939Z,7.71
2022-11-10T01:36:23.829Z,7.73
2022-11-10T01:41:45.744Z,7.81
2022-11-10T01:47:08.009Z,7.75
2022-11-10T01:52:29.942Z,7.78
2022-11-10T01:57:52.062Z,7.70
2022-11-10T02:03:16.574Z,7.67
2022-11-10T02:08:38.728Z,7.52
2022-11-10T02:14:01.106Z,7.57
2022-11-10T02:19:25.170Z,7.61
2022-11-10T02:24:47.164Z,7.57
2022-11-10T02:30:09.383Z,7.45
2022-11-10T02:35:31.207Z,7.57
2022-11-10T02:40:53.081Z,7.61
2022-11-10T02:46:14.931Z,7.65
2022-11-10T02:51:36.840Z,7.69
2022-11-10T02:56:58.638Z,7.76
2022-11-10T03:02:20.478Z,7.76
2022-11-10T03:07:42.589Z,7.82
2022-11-10T03:13:04.603Z,7.83
2022-11-10T03:18:26.472Z,7.90
2022-11-10T03:23:48.323Z,7.86
2022-11-10T03:29:10.088Z,7.96
2022-11-10T03:34:32.126Z,8.01
2022-11-10T03:39:53.995Z,8.02
2022-11-10T03:45:16.098Z,8.08
2022-11-10T03:50:38.018Z,8.07
2022-11-10T03:56:01.273Z,8.18
2022-11-10T04:01:23.352Z,8.26
2022-11-10T04:06:45.216Z,8.26
2022-11-10T04:12:07.091Z,8.32
2022-11-10T04:17:28.934Z,8.36
2022-11-10T04:22:50.776Z,8.50
2022-11-10T04:28:12.593Z,8.62
2022-11-10T04:33:35.607Z,8.62
2022-11-10T04:38:57.989Z,8.65
2022-11-10T04:44:19.794Z,8.77
2022-11-10T04:49:41.593Z,8.86
2022-11-10T04:55:03.592Z,8.94
2022-11-10T05:00:25.449Z,9.07
2022-11-10T05:05:47.280Z,9.09
2022-11-10T05:11:10.198Z,9.11
2022-11-10T05:16:32.021Z,9.05
2022-11-10T05:21:53.899Z,9.20
2022-11-10T05:27:15.776Z,9.21
2022-11-10T05:32:37.721Z,9.26
2022-11-10T05:37:59.561Z,9.39
2022-11-10T05:43:21.826Z,9.40
2022-11-10T05:48:44.013Z,9.55
2022-11-10T05:54:05.885Z,9.58
2022-11-10T05:59:27.663Z,9.61
2022-11-10T06:04:49.462Z,9.76
2022-11-10T06:10:11.266Z,9.82
2022-11-10T06:15:33.755Z,9.93
2022-11-10T06:27:22.579Z,9.98
2022-11-10T06:32:57.142Z,10.10
2022-11-10T06:38:18.873Z,10.09
2022-11-10T06:43:40.672Z,10.14
2022-11-10T06:49:02.535Z,10.20
2022-11-10T06:54:24.308Z,10.20
2022-11-10T06:59:46.132Z,10.16
2022-11-10T07:05:08.532Z,10.21
2022-11-10T07:10:30.742Z,10.37
2022-11-10T07:15:52.519Z,10.41
2022-11-10T07:21:14.636Z,10.39
2022-11-10T07:26:36.481Z,10.60
2022-11-10T07:31:58.274Z,10.68
2022-11-10T07:37:20.080Z,10.81
2022-11-10T07:42:41.921Z,10.78
2022-11-10T07:48:06.680Z,10.82
2022-11-10T07:53:28.468Z,10.93
2022-11-10T07:58:50.249Z,10.93
2022-11-10T08:04:12.105Z,11.04
2022-11-10T08:09:34.779Z,11.06
2022-11-10T08:14:56.578Z,10.86
2022-11-10T08:20:18.434Z,11.06
2022-11-10T08:25:40.889Z,11.10
2022-11-10T08:31:05.788Z,11.20
2022-11-10T08:36:28.209Z,11.25
2022-11-10T08:41:50.032Z,11.28
2022-11-10T08:47:11.889Z,11.49
2022-11-10T08:52:33.789Z,11.44
2022-11-10T08:58:00.191Z,11.30
2022-11-10T09:03:25.080Z,11.60
2022-11-10T09:08:47.178Z,11.82
2022-11-10T09:14:09.898Z,11.72
2022-11-10T09:19:31.794Z,11.59
2022-11-10T09:24:53.609Z,11.73
2022-11-10T09:30:17.936Z,11.73
2022-11-10T09:35:40.168Z,11.79
2022-11-10T09:41:07.102Z,11.86
2022-11-10T09:46:37.267Z,11.93
2022-11-10T09:52:01.853Z,12.10
2022-11-10T09:57:26.732Z,12.05
2022-11-10T10:02:53.807Z,12.08
2022-11-10T10:08:31.872Z,12.24
2022-11-10T10:14:09.974Z,12.19
2022-11-10T10:19:57.499Z,11.96
2022-11-10T10:25:23.574Z,12.11
2022-11-10T10:30:45.652Z,12.23
2022-11-10T10:36:15.245Z,12.57
2022-11-10T10:41:37.448Z,12.98
2022-11-10T10:47:01.561Z,12.99
2022-11-10T10:52:23.429Z,13.06
2022-11-10T10:57:56.665Z,13.04
2022-11-10T11:03:49.793Z,13.11
2022-11-10T11:09:14.646Z,13.24
2022-11-10T11:14:38.655Z,13.40
2022-11-10T11:20:04.116Z,13.21
2022-11-10T11:25:34.233Z,13.02
2022-11-10T11:31:19.339Z,13.31
2022-11-10T11:37:15.290Z,13.49
2022-11-10T11:43:01.589Z,13.51
2022-11-10T11:48:32.444Z,13.47
2022-11-10T11:53:56.848Z,13.51
2022-11-10T11:59:55.426Z,13.42
2022-11-10T12:05:23.397Z,13.51
2022-11-10T12:11:07.875Z,13.57
2022-11-10T12:16:31.944Z,13.81
2022-11-10T12:22:11.790Z,13.89
2022-11-10T12:27:38.382Z,13.88
2022-11-10T12:33:20.385Z,13.38
2022-11-10T12:39:00.567Z,13.78
2022-11-10T12:44:37.199Z,13.62
2022-11-10T12:50:09.733Z,13.47
2022-11-10T12:55:50.634Z,13.37
2022-11-10T13:01:18.787Z,13.57
2022-11-10T13:06:49.260Z,13.43
2022-11-10T13:12:11.070Z,13.32
2022-11-10T13:17:38.925Z,13.31
2022-11-10T13:23:00.701Z,13.10
2022-11-10T13:28:47.094Z,13.03
2022-11-10T13:34:12.695Z,12.61
2022-11-10T13:39:34.580Z,12.76
2022-11-10T13:45:34.678Z,12.94
2022-11-10T13:51:34.237Z,12.86
2022-11-10T13:57:33.564Z,12.81
2022-11-10T14:02:57.755Z,12.74
2022-11-10T14:08:24.776Z,12.70
2022-11-10T14:13:55.544Z,12.56
2022-11-10T14:19:44.360Z,12.37
2022-11-10T14:25:33.564Z,12.40
2022-11-10T14:30:55.962Z,12.30
2022-11-10T14:36:18.565Z,12.01
2022-11-10T14:41:47.979Z,11.88
2022-11-10T14:47:30.038Z,11.79
2022-11-10T14:53:11.596Z,11.70
2022-11-10T14:58:37.941Z,11.55
2022-11-10T15:04:01.751Z,11.43
2022-11-10T15:09:30.612Z,11.36
2022-11-10T15:15:00.180Z,11.26
2022-11-10T15:20:36.843Z,11.25
2022-11-10T15:25:58.681Z,11.10
2022-11-10T15:31:29.319Z,11.05
2022-11-10T15:37:11.430Z,11.09
2022-11-10T15:42:33.232Z,11.18
2022-11-10T15:47:55.847Z,11.25
2022-11-10T15:53:24.746Z,11.34
2022-11-10T15:58:51.611Z,11.25
2022-11-10T16:04:13.478Z,11.19
2022-11-10T16:09:35.275Z,11.16
2022-11-10T16:14:57.234Z,11.08
2022-11-10T16:20:19.057Z,11.13
2022-11-10T16:25:41.629Z,11.29
2022-11-10T16:31:05.877Z,11.40
2022-11-10T16:36:34.447Z,11.51
2022-11-10T16:41:56.338Z,11.60
2022-11-10T16:47:19.385Z,11.57
2022-11-10T16:52:41.185Z,11.57
2022-11-10T16:58:03.057Z,11.45
2022-11-10T17:03:38.649Z,11.40
2022-11-10T17:09:07.975Z,11.36
2022-11-10T17:14:29.775Z,11.36
2022-11-10T17:19:51.705Z,11.33
2022-11-10T17:25:23.332Z,11.26
2022-11-10T17:30:45.205Z,11.26
2022-11-10T17:36:14.741Z,11.18
2022-11-10T17:41:36.563Z,11.05
2022-11-10T17:46:58.414Z,10.92
2022-11-10T17:52:20.242Z,10.82
2022-11-10T17:57:42.038Z,10.59
2022-11-10T18:03:03.820Z,10.49
2022-11-10T18:08:25.775Z,10.47
2022-11-10T18:13:47.584Z,10.44
2022-11-10T18:19:11.079Z,10.12
2022-11-10T18:24:32.900Z,10.38
2022-11-10T18:29:54.777Z,10.36
2022-11-10T18:35:16.650Z,10.36
2022-11-10T18:40:38.444Z,10.21
2022-11-10T18:46:00.278Z,10.16
2022-11-10T18:51:22.064Z,10.07
2022-11-10T18:56:43.899Z,9.99
2022-11-10T19:02:05.759Z,9.95
2022-11-10T19:07:27.529Z,9.93
2022-11-10T19:12:49.334Z,9.84
2022-11-10T19:18:11.098Z,9.82
2022-11-10T19:23:33.300Z,9.90
2022-11-10T19:28:55.994Z,9.84
2022-11-10T19:34:17.815Z,9.78
2022-11-10T19:39:39.630Z,9.77
2022-11-10T19:45:01.652Z,9.69
2022-11-10T19:50:23.510Z,9.63
2022-11-10T19:55:45.377Z,9.52
2022-11-10T20:01:08.066Z,9.51
2022-11-10T20:06:30.087Z,9.50
2022-11-10T20:11:51.925Z,9.38
2022-11-10T20:17:13.847Z,9.33
2022-11-10T20:22:35.726Z,9.27
2022-11-10T20:27:58.256Z,9.24
2022-11-10T20:33:21.690Z,9.23
2022-11-10T20:38:43.971Z,9.15
2022-11-10T20:44:05.783Z,9.14
2022-11-10T20:49:27.666Z,9.08
2022-11-10T20:54:49.714Z,9.00
2022-11-10T21:00:11.868Z,9.01
2022-11-10T21:05:33.638Z,8.96
2022-11-10T21:11:01.426Z,8.94
2022-11-10T21:16:23.248Z,8.82
2022-11-10T21:21:45.047Z,8.85
2022-11-10T21:27:06.921Z,8.88
2022-11-10T21:32:28.736Z,8.81
2022-11-10T21:37:50.519Z,8.78
2022-11-10T21:43:12.283Z,8.84
2022-11-10T21:48:34.961Z,8.85
2022-11-10T21:53:56.779Z,8.84
2022-11-10T21:59:18.591Z,8.83
2022-11-10T22:04:40.470Z,8.83
2022-11-10T22:10:02.264Z,8.72
2022-11-10T22:15:24.309Z,8.57
2022-11-10T22:20:46.317Z,8.47
2022-11-10T22:26:08.121Z,8.53
2022-11-10T22:31:32.918Z,8.46
2022-11-10T22:36:54.758Z,8.38
2022-11-10T22:42:16.545Z,8.40
2022-11-10T22:47:38.566Z,8.37
2022-11-10T22:53:00.342Z,8.33
2022-11-10T22:58:22.114Z,8.24
2022-11-10T23:03:43.984Z,8.25
2022-11-10T23:09:06.057Z,8.22
2022-11-10T23:14:27.847Z,8.13
2022-11-10T23:19:49.685Z,8.13
2022-11-10T23:25:11.490Z,8.32
2022-11-10T23:30:33.300Z,8.43
2022-11-10T23:35:55.143Z,8.50
2022-11-10T23:41:19.278Z,8.54
2022-11-10T23:46:41.075Z,8.58
2022-11-10T23:52:02.921Z,8.60
2022-11-10T23:57:24.852Z,8.69
